Lake Camelot, Illinois
Current Conditions -  °F | °C
As of 7:54 AM on Friday 28 Nov 2014 (Local Time) from KPIA Reporting Station
Few Clouds Few Clouds  
Wind Chill: 10°   Ceiling: Unl
Heat Index: 21°   Visibility: 10mi
Dew Point: 11°   Wind: 10mph
Humidity: 65%   Direction: 150°SSE
Pressure: 30.21"   Gusts: NA
Location:  40.5976°N, 89.727°W
Report Text: KPIA 281354Z 15009KT 10SM FEW110 M06/M12 A3021 RMK AO2 SLP243 T10611117
Loading
Personal Weather Stations






























Interactive Weather Map New forecast layout! Learn more

10-Day Weather Forecast

Advertisements
Track Severe Weather on mobile